createdAt,value
2024-01-03T00:00:05.117Z,99.99
2024-01-03T00:01:05.135Z,99.99
2024-01-03T00:02:05.104Z,99.99
2024-01-03T00:03:05.052Z,99.99
2024-01-03T00:04:05.154Z,99.99
2024-01-03T00:05:05.044Z,99.99
2024-01-03T00:06:05.114Z,99.99
2024-01-03T00:07:05.054Z,99.99
2024-01-03T00:08:05.052Z,99.99
2024-01-03T00:09:05.102Z,99.99
2024-01-03T00:10:04.996Z,99.99
2024-01-03T00:11:04.983Z,99.99
2024-01-03T00:12:05.053Z,99.99
2024-01-03T00:13:04.992Z,99.99
2024-01-03T00:14:04.976Z,99.99
2024-01-03T00:15:04.933Z,99.99
2024-01-03T00:16:04.947Z,99.99
2024-01-03T00:17:04.928Z,99.99
2024-01-03T00:18:05.330Z,99.99
2024-01-03T00:19:05.231Z,99.99
2024-01-03T00:20:04.886Z,99.99
2024-01-03T00:21:04.974Z,99.99
2024-01-03T00:22:04.961Z,99.99
2024-01-03T00:23:04.869Z,99.99
2024-01-03T00:24:04.841Z,99.99
2024-01-03T00:25:04.867Z,99.99
2024-01-03T00:26:04.828Z,99.99
2024-01-03T00:27:04.868Z,99.99
2024-01-03T00:28:04.929Z,99.99
2024-01-03T00:29:04.794Z,99.99
2024-01-03T00:30:04.916Z,99.99
2024-01-03T00:31:04.815Z,99.99
2024-01-03T00:32:04.818Z,99.99
2024-01-03T00:33:05.645Z,99.99
2024-01-03T00:34:04.926Z,99.99
2024-01-03T00:35:04.768Z,99.99
2024-01-03T00:36:04.743Z,99.99
2024-01-03T00:37:04.682Z,99.99
2024-01-03T00:38:04.856Z,99.99
2024-01-03T00:39:04.722Z,99.99
2024-01-03T00:40:04.664Z,99.99
2024-01-03T00:41:04.666Z,99.99
2024-01-03T00:42:04.620Z,99.99
2024-01-03T00:43:04.723Z,99.99
2024-01-03T00:44:04.653Z,99.99
2024-01-03T00:45:04.656Z,99.99
2024-01-03T00:46:04.631Z,99.99
2024-01-03T00:47:04.566Z,99.99
2024-01-03T00:48:04.702Z,99.99
2024-01-03T00:49:04.687Z,99.99
2024-01-03T00:50:04.667Z,99.99
2024-01-03T00:51:04.574Z,99.99
2024-01-03T00:52:04.544Z,99.99
2024-01-03T00:53:04.537Z,99.99
2024-01-03T00:54:04.514Z,99.99
2024-01-03T00:55:04.503Z,99.99
2024-01-03T00:56:04.487Z,99.99
2024-01-03T00:57:04.518Z,99.99
2024-01-03T00:58:04.495Z,99.99
2024-01-03T00:59:04.479Z,99.99
2024-01-03T01:00:04.520Z,99.99
2024-01-03T01:01:04.498Z,99.99
2024-01-03T01:02:04.420Z,99.99
2024-01-03T01:03:04.401Z,99.99
2024-01-03T01:04:04.556Z,99.99
2024-01-03T01:05:04.513Z,99.99
2024-01-03T01:06:04.462Z,99.99
2024-01-03T01:07:04.381Z,99.99
2024-01-03T01:08:04.373Z,99.99
2024-01-03T01:09:04.416Z,99.99
2024-01-03T01:10:04.339Z,99.99
2024-01-03T01:11:04.327Z,99.99
2024-01-03T01:12:04.322Z,99.99
2024-01-03T01:13:04.324Z,99.99
2024-01-03T01:14:04.314Z,99.99
2024-01-03T01:15:04.352Z,99.99
2024-01-03T01:16:04.334Z,99.99
2024-01-03T01:17:04.288Z,99.99
2024-01-03T01:18:04.513Z,99.99
2024-01-03T01:19:04.423Z,99.99
2024-01-03T01:20:04.246Z,99.99
2024-01-03T01:21:04.215Z,99.99
2024-01-03T01:22:04.183Z,99.99
2024-01-03T01:23:04.182Z,99.99
2024-01-03T01:24:04.218Z,99.99
2024-01-03T01:25:04.199Z,99.99
2024-01-03T01:26:04.166Z,99.99
2024-01-03T01:27:04.235Z,99.99
2024-01-03T01:28:04.152Z,99.99
2024-01-03T01:29:04.190Z,99.99
2024-01-03T01:30:04.245Z,99.99
2024-01-03T01:31:04.134Z,99.99
2024-01-03T01:32:04.099Z,99.99
2024-01-03T01:33:04.234Z,99.99
2024-01-03T01:34:04.183Z,99.99
2024-01-03T01:35:04.089Z,99.99
2024-01-03T01:36:04.052Z,99.99
2024-01-03T01:37:04.022Z,99.99
2024-01-03T01:38:04.026Z,99.99
2024-01-03T01:39:04.096Z,99.99
2024-01-03T01:40:04.025Z,99.99
2024-01-03T01:41:04.007Z,99.99
2024-01-03T01:42:04.057Z,99.99
2024-01-03T01:43:04.012Z,99.99
2024-01-03T01:44:04.020Z,99.99
2024-01-03T01:45:04.103Z,99.99
2024-01-03T01:46:04.035Z,99.99
2024-01-03T01:47:03.911Z,99.99
2024-01-03T01:48:04.203Z,99.99
2024-01-03T01:49:04.002Z,99.99
2024-01-03T01:50:03.943Z,99.99
2024-01-03T01:51:03.889Z,99.99
2024-01-03T01:52:03.908Z,99.99
2024-01-03T01:53:03.868Z,99.99
2024-01-03T01:54:03.937Z,99.99
2024-01-03T01:55:03.848Z,99.99
2024-01-03T01:56:03.832Z,99.99
2024-01-03T01:57:03.897Z,99.99
2024-01-03T01:58:03.824Z,99.99
2024-01-03T01:59:03.841Z,99.99
2024-01-03T02:00:03.948Z,99.99
2024-01-03T02:01:03.878Z,99.99
2024-01-03T02:02:03.767Z,99.99
2024-01-03T02:03:03.774Z,99.99
2024-01-03T02:04:03.792Z,99.99
2024-01-03T02:05:03.777Z,99.99
2024-01-03T02:06:03.764Z,99.99
2024-01-03T02:07:03.766Z,99.99
2024-01-03T02:08:03.726Z,99.99
2024-01-03T02:09:03.782Z,99.99
2024-01-03T02:10:03.720Z,99.99
2024-01-03T02:11:03.723Z,99.99
2024-01-03T02:12:03.701Z,99.99
2024-01-03T02:13:03.732Z,99.99
2024-01-03T02:14:03.702Z,99.99
2024-01-03T02:15:03.682Z,99.99
2024-01-03T02:16:03.650Z,99.99
2024-01-03T02:17:03.608Z,99.99
2024-01-03T02:18:03.782Z,99.99
2024-01-03T02:19:03.763Z,99.99
2024-01-03T02:20:03.575Z,99.99
2024-01-03T02:21:03.608Z,99.99
2024-01-03T02:22:03.544Z,99.99
2024-01-03T02:23:03.546Z,99.99
2024-01-03T02:24:03.606Z,99.99
2024-01-03T02:25:03.510Z,99.99
2024-01-03T02:26:10.499Z,99.99
2024-01-03T02:53:44.885Z,99.99
2024-01-03T02:54:45.803Z,99.99
2024-01-03T02:55:45.733Z,99.99
2024-01-03T02:56:45.736Z,99.99
2024-01-03T02:57:45.689Z,99.99
2024-01-03T02:58:45.715Z,99.99
2024-01-03T03:01:14.401Z,99.99
2024-01-03T03:02:11.747Z,99.99
2024-01-03T03:03:13.799Z,99.99
2024-01-03T03:04:12.277Z,99.99
2024-01-03T03:05:23.114Z,99.99
2024-01-03T03:06:14.453Z,99.99
2024-01-03T03:07:14.769Z,99.99
2024-01-03T03:09:38.232Z,99.99
2024-01-03T03:09:56.290Z,99.99
2024-01-03T03:10:50.703Z,99.99
2024-01-03T03:11:49.033Z,99.99
2024-01-03T03:12:51.215Z,99.99
2024-01-03T03:13:49.625Z,99.99
2024-01-03T03:14:51.315Z,99.99
2024-01-03T03:15:54.035Z,99.99
2024-01-03T03:16:52.494Z,99.99
2024-01-03T03:18:05.080Z,99.99
2024-01-03T03:18:51.969Z,99.99
2024-01-03T03:19:51.150Z,99.99
2024-01-03T03:20:55.687Z,99.99
2024-01-03T03:21:51.519Z,99.99
2024-01-03T03:22:56.966Z,99.99
2024-01-03T03:23:55.327Z,99.99
2024-01-03T03:24:54.593Z,99.99
2024-01-03T03:25:50.765Z,99.99
2024-01-03T03:26:49.856Z,99.99
2024-01-03T03:28:02.465Z,99.99
2024-01-03T03:28:53.379Z,99.99
2024-01-03T03:29:51.705Z,99.99
2024-01-03T03:30:50.946Z,99.99
2024-01-03T03:31:49.411Z,99.99
2024-01-03T03:32:49.234Z,99.99
2024-01-03T03:33:51.669Z,99.99
2024-01-03T03:34:50.984Z,99.99
2024-01-03T03:35:51.507Z,99.99
2024-01-03T03:36:49.526Z,99.99
2024-01-03T03:38:07.802Z,99.99
2024-01-03T03:38:49.788Z,99.99
2024-01-03T03:39:51.363Z,99.99
2024-01-03T03:40:51.398Z,99.99
2024-01-03T03:41:59.546Z,99.99
2024-01-03T03:42:53.321Z,99.99
2024-01-03T03:43:49.253Z,99.99
2024-01-03T03:44:53.526Z,99.99
2024-01-03T03:45:55.721Z,99.99
2024-01-03T03:46:52.759Z,99.99
2024-01-03T03:47:50.989Z,99.99
2024-01-03T03:48:49.602Z,99.99
2024-01-03T03:49:49.877Z,99.99
2024-01-03T03:50:49.211Z,99.99
2024-01-03T03:51:49.369Z,99.99
2024-01-03T03:52:50.293Z,99.99
2024-01-03T03:53:56.492Z,99.99
2024-01-03T03:54:50.019Z,99.99
2024-01-03T03:55:49.151Z,99.99
2024-01-03T03:56:49.176Z,99.99
2024-01-03T03:57:49.024Z,99.99
2024-01-03T03:58:49.032Z,99.99
2024-01-03T03:59:55.612Z,99.99
2024-01-03T04:00:50.154Z,99.99
2024-01-03T04:01:48.180Z,99.99
2024-01-03T04:02:50.201Z,99.99
2024-01-03T04:03:52.588Z,99.99
2024-01-03T04:04:48.880Z,99.99
2024-01-03T04:07:04.824Z,99.99
2024-01-03T04:08:06.889Z,99.99
2024-01-03T04:09:05.448Z,99.99
2024-01-03T04:10:06.296Z,99.99
2024-01-03T04:11:06.337Z,99.99
2024-01-03T04:12:05.397Z,99.99
2024-01-03T04:13:05.322Z,99.99
2024-01-03T04:14:07.445Z,99.99
2024-01-03T04:15:07.548Z,99.99
2024-01-03T04:16:06.023Z,99.99
2024-01-03T04:17:05.814Z,99.99
2024-01-03T04:18:06.304Z,99.99
2024-01-03T04:19:05.769Z,99.99
2024-01-03T04:20:05.164Z,99.99
2024-01-03T04:21:05.746Z,99.99
2024-01-03T04:22:05.215Z,99.99
2024-01-03T04:23:04.957Z,99.99
2024-01-03T04:24:05.133Z,99.99
2024-01-03T04:25:04.908Z,99.99
2024-01-03T04:26:04.793Z,99.99
2024-01-03T04:27:05.073Z,99.99
2024-01-03T04:28:04.855Z,99.99
2024-01-03T04:29:04.842Z,99.99
2024-01-03T04:30:04.855Z,99.99
2024-01-03T04:31:05.328Z,99.99
2024-01-03T04:32:04.710Z,99.99
2024-01-03T04:33:04.705Z,99.99
2024-01-03T04:34:05.895Z,99.99
2024-01-03T04:35:04.722Z,99.99
2024-01-03T04:36:05.308Z,99.99
2024-01-03T04:37:04.807Z,99.99
2024-01-03T04:38:04.871Z,99.99
2024-01-03T04:39:05.180Z,99.99
2024-01-03T04:40:04.726Z,99.99
2024-01-03T04:41:05.108Z,99.99
2024-01-03T04:42:04.846Z,99.99
2024-01-03T04:43:04.901Z,99.99
2024-01-03T04:44:04.978Z,99.99
2024-01-03T04:45:04.833Z,99.99
2024-01-03T04:46:04.810Z,99.99
2024-01-03T04:47:04.715Z,99.99
2024-01-03T04:48:04.798Z,99.99
2024-01-03T04:49:05.118Z,99.99
2024-01-03T04:50:04.777Z,99.99
2024-01-03T04:51:04.734Z,99.99
2024-01-03T04:52:04.882Z,99.99
2024-01-03T04:53:04.727Z,99.99
2024-01-03T04:54:04.837Z,99.99
2024-01-03T04:55:04.708Z,99.99
2024-01-03T04:56:12.345Z,99.99
2024-01-03T04:57:05.125Z,99.99
2024-01-03T04:58:04.485Z,99.99
2024-01-03T04:59:04.702Z,99.99
2024-01-03T05:00:04.524Z,99.99
2024-01-03T05:01:04.669Z,99.99
2024-01-03T05:02:04.879Z,99.99
2024-01-03T05:03:04.993Z,99.99
2024-01-03T05:04:05.356Z,99.99
2024-01-03T05:05:04.648Z,99.99
2024-01-03T05:06:04.856Z,99.99
2024-01-03T05:07:04.590Z,99.99
2024-01-03T05:08:04.657Z,99.99
2024-01-03T05:09:04.598Z,99.99
2024-01-03T05:10:05.051Z,99.99
2024-01-03T05:11:04.329Z,99.99
2024-01-03T05:12:04.683Z,99.99
2024-01-03T05:13:04.595Z,99.99
2024-01-03T05:14:04.387Z,99.99
2024-01-03T05:15:04.405Z,99.99
2024-01-03T05:16:04.824Z,99.99
2024-01-03T05:17:04.535Z,99.99
2024-01-03T05:18:04.541Z,99.99
2024-01-03T05:19:04.687Z,99.99
2024-01-03T05:20:11.729Z,99.99
2024-01-03T05:21:08.590Z,99.99
2024-01-03T05:22:05.876Z,99.99
2024-01-03T05:23:04.817Z,99.99
2024-01-03T05:24:04.523Z,99.99
2024-01-03T05:25:04.920Z,99.99
2024-01-03T05:26:04.404Z,99.99
2024-01-03T05:27:04.383Z,99.99
2024-01-03T05:28:04.731Z,99.99
2024-01-03T05:32:12.691Z,99.99
2024-01-03T05:33:38.049Z,99.93
2024-01-03T05:34:46.394Z,99.82
2024-01-03T05:35:40.755Z,99.62
2024-01-03T05:36:52.825Z,99.41
2024-01-03T05:38:18.618Z,99.41
2024-01-03T05:39:02.362Z,99.41
2024-01-03T05:39:36.170Z,99.31
2024-01-03T05:49:50.293Z,98.65
2024-01-03T05:50:13.028Z,98.44
2024-01-03T05:51:12.095Z,98.33
2024-01-03T05:53:22.347Z,98.44
2024-01-03T05:54:22.988Z,98.54
2024-01-03T05:56:34.055Z,97.82
2024-01-03T05:57:35.200Z,97.72
2024-01-03T06:00:01.441Z,97.62
2024-01-03T06:01:01.905Z,97.41
2024-01-03T06:03:13.101Z,97.20
2024-01-03T06:04:13.984Z,97.20
2024-01-03T06:05:14.427Z,97.20
2024-01-03T06:06:14.028Z,97.10
2024-01-03T06:07:14.459Z,96.90
2024-01-03T06:08:14.227Z,97.00
2024-01-03T06:09:13.971Z,96.90
2024-01-03T06:10:14.005Z,97.00
2024-01-03T06:11:14.185Z,97.00
2024-01-03T06:12:15.730Z,96.80
2024-01-03T06:13:14.303Z,96.59
2024-01-03T06:14:13.885Z,96.39
2024-01-03T06:15:14.116Z,96.48
2024-01-03T06:16:14.971Z,96.44
2024-01-03T06:17:14.205Z,96.59
2024-01-03T06:18:14.538Z,96.44
2024-01-03T06:19:15.128Z,96.34
2024-01-03T06:20:14.607Z,96.14
2024-01-03T06:21:16.980Z,96.14
2024-01-03T06:22:14.065Z,96.14
2024-01-03T06:23:14.319Z,96.23
2024-01-03T06:24:14.391Z,96.14
2024-01-03T06:25:13.951Z,95.93
2024-01-03T06:26:14.275Z,95.72
2024-01-03T06:27:14.140Z,95.62
2024-01-03T06:28:14.413Z,95.72
2024-01-03T06:29:13.611Z,95.62
2024-01-03T06:30:13.880Z,95.62
2024-01-03T06:32:24.506Z,95.62
2024-01-03T06:33:32.658Z,95.31
2024-01-03T06:34:32.399Z,95.42
2024-01-03T06:36:35.489Z,94.85
2024-01-03T06:39:27.773Z,94.85
2024-01-03T06:40:29.068Z,94.45
2024-01-03T06:41:28.221Z,94.24
2024-01-03T06:43:49.645Z,93.93
2024-01-03T06:44:50.837Z,94.14
2024-01-03T06:47:01.480Z,94.04
2024-01-03T06:48:03.522Z,94.14
2024-01-03T06:50:30.537Z,93.63
2024-01-03T06:51:30.780Z,93.83
2024-01-03T06:52:29.651Z,93.93
2024-01-03T06:53:28.493Z,93.63
2024-01-03T06:54:28.836Z,93.52
2024-01-03T06:55:39.743Z,93.73
2024-01-03T06:56:44.992Z,93.52
2024-01-03T06:57:50.408Z,93.52
2024-01-03T07:02:39.216Z,93.73
2024-01-03T07:02:48.599Z,94.34
2024-01-03T07:03:47.943Z,94.34
2024-01-03T07:04:48.352Z,94.34
2024-01-03T07:05:47.889Z,94.14
2024-01-03T07:06:48.346Z,94.34
2024-01-03T07:07:48.183Z,94.55
2024-01-03T07:08:47.098Z,94.96
2024-01-03T07:09:54.510Z,95.17
2024-01-03T07:10:55.779Z,95.27
2024-01-03T07:12:04.457Z,95.27
2024-01-03T07:12:49.090Z,95.37
2024-01-03T07:13:49.639Z,95.47
2024-01-03T07:14:57.324Z,95.47
2024-01-03T07:15:49.279Z,95.06
2024-01-03T07:16:52.389Z,94.85
2024-01-03T07:17:47.828Z,95.17
2024-01-03T07:19:49.959Z,95.17
2024-01-03T07:20:17.408Z,94.85
2024-01-03T07:21:06.349Z,94.96
2024-01-03T07:22:08.294Z,94.85
2024-01-03T07:23:05.358Z,94.55
2024-01-03T07:24:17.626Z,94.55
2024-01-03T07:25:00.782Z,94.14
2024-01-03T07:26:08.184Z,94.34
2024-01-03T07:26:59.833Z,94.34
2024-01-03T07:27:59.633Z,94.34
2024-01-03T07:29:00.907Z,94.04
2024-01-03T07:30:01.540Z,94.14
2024-01-03T07:30:58.216Z,94.14
2024-01-03T07:31:58.085Z,94.24
2024-01-03T07:32:58.706Z,94.55
2024-01-03T07:33:58.346Z,94.34
2024-01-03T07:34:58.298Z,94.34
2024-01-03T07:37:09.584Z,94.24
2024-01-03T07:38:10.798Z,94.04
2024-01-03T07:40:20.427Z,93.93
2024-01-03T07:42:41.503Z,93.42
2024-01-03T07:43:41.011Z,93.42
2024-01-03T07:44:47.778Z,93.12
2024-01-03T07:45:51.757Z,92.80
2024-01-03T07:47:53.509Z,92.91
2024-01-03T07:49:02.428Z,92.50
2024-01-03T07:49:54.749Z,92.70
2024-01-03T07:51:05.880Z,92.60
2024-01-03T07:53:05.430Z,92.60
2024-01-03T07:55:17.322Z,92.08
2024-01-03T07:56:18.468Z,91.57
2024-01-03T07:57:26.698Z,91.57
2024-01-03T07:58:18.374Z,91.88
2024-01-03T07:59:26.858Z,91.47
2024-01-03T08:00:18.222Z,91.27
2024-01-03T08:01:27.336Z,90.75
2024-01-03T08:02:18.395Z,91.12
2024-01-03T08:03:18.159Z,90.81
2024-01-03T08:04:24.758Z,91.02
2024-01-03T08:05:18.288Z,91.12
2024-01-03T08:06:18.319Z,91.12
2024-01-03T08:07:18.084Z,91.12
2024-01-03T08:08:18.109Z,90.85
2024-01-03T08:09:18.082Z,90.75
2024-01-03T08:10:18.089Z,90.50
2024-01-03T08:11:18.213Z,90.91
2024-01-03T08:12:26.018Z,90.24
2024-01-03T08:13:18.254Z,89.99
2024-01-03T08:14:18.289Z,90.30
2024-01-03T08:15:18.028Z,89.99
2024-01-03T08:16:18.132Z,89.99
2024-01-03T08:17:18.045Z,90.40
2024-01-03T08:18:18.575Z,90.20
2024-01-03T08:19:18.098Z,89.89
2024-01-03T08:20:18.038Z,90.09
2024-01-03T08:21:17.993Z,90.40
2024-01-03T08:22:17.885Z,89.17
2024-01-03T08:23:17.946Z,89.69
2024-01-03T08:24:17.897Z,89.58
2024-01-03T08:25:17.858Z,89.48
2024-01-03T08:26:17.876Z,89.17
2024-01-03T08:27:17.869Z,89.07
2024-01-03T08:28:17.828Z,89.27
2024-01-03T08:29:17.862Z,89.48
2024-01-03T08:30:17.887Z,89.17
2024-01-03T08:31:17.821Z,89.69
2024-01-03T08:32:17.835Z,88.76
2024-01-03T08:33:17.884Z,89.07
2024-01-03T08:34:17.835Z,89.17
2024-01-03T08:35:17.824Z,88.45
2024-01-03T08:36:17.870Z,88.76
2024-01-03T08:37:18.551Z,88.00
2024-01-03T08:38:17.774Z,88.21
2024-01-03T08:39:17.733Z,88.41
2024-01-03T08:40:17.742Z,88.41
2024-01-03T08:41:18.052Z,88.62
2024-01-03T08:42:17.713Z,88.10
2024-01-03T08:43:17.694Z,88.31
2024-01-03T08:44:17.689Z,87.79
2024-01-03T08:45:17.680Z,88.62
2024-01-03T08:46:17.704Z,88.41
2024-01-03T08:47:17.697Z,88.41
2024-01-03T08:48:17.896Z,88.41
2024-01-03T08:49:17.897Z,87.79
2024-01-03T08:50:17.786Z,88.31
2024-01-03T08:51:18.509Z,88.00
2024-01-03T08:52:17.576Z,87.70
2024-01-03T08:53:17.638Z,88.21
2024-01-03T08:54:17.550Z,88.41
2024-01-03T08:55:17.573Z,88.57
2024-01-03T08:56:17.775Z,88.17
2024-01-03T08:57:17.551Z,88.27
2024-01-03T08:58:17.543Z,88.27
2024-01-03T08:59:17.629Z,87.76
2024-01-03T09:01:16.909Z,86.73
2024-01-03T09:02:17.934Z,86.52
2024-01-03T09:03:17.869Z,87.14
2024-01-03T09:04:17.865Z,87.24
2024-01-03T09:05:17.813Z,87.65
2024-01-03T09:06:17.873Z,87.45
2024-01-03T09:07:17.883Z,87.45
2024-01-03T09:08:17.788Z,87.85
2024-01-03T09:09:17.770Z,87.14
2024-01-03T09:10:17.776Z,86.32
2024-01-03T09:11:17.846Z,87.45
2024-01-03T09:12:17.753Z,86.63
2024-01-03T09:13:17.712Z,85.97
2024-01-03T09:14:17.739Z,86.90
2024-01-03T09:15:17.693Z,86.79
2024-01-03T09:16:17.697Z,86.58
2024-01-03T09:17:17.735Z,87.10
2024-01-03T09:18:18.032Z,86.69
2024-01-03T09:19:17.755Z,86.28
2024-01-03T09:20:17.657Z,86.90
2024-01-03T09:21:17.631Z,87.20
2024-01-03T09:22:17.641Z,87.20
2024-01-03T09:23:17.617Z,86.18
2024-01-03T09:24:17.577Z,86.07
2024-01-03T09:25:17.575Z,86.07
2024-01-03T09:26:17.598Z,85.97
2024-01-03T09:27:17.586Z,86.18
2024-01-03T09:28:17.598Z,86.04
2024-01-03T09:29:17.574Z,85.63
2024-01-03T09:30:17.687Z,85.31
2024-01-03T09:31:17.570Z,85.31
2024-01-03T09:32:17.524Z,85.01
2024-01-03T09:33:17.607Z,85.01
2024-01-03T09:34:17.656Z,85.31
2024-01-03T09:35:17.482Z,85.01
2024-01-03T09:36:17.596Z,85.01
2024-01-03T09:37:17.482Z,85.11
2024-01-03T09:38:17.486Z,85.22
2024-01-03T09:39:17.479Z,85.28
2024-01-03T09:40:17.469Z,84.87
2024-01-03T09:41:17.408Z,85.07
2024-01-03T09:42:17.754Z,85.07
2024-01-03T09:43:17.781Z,85.38
2024-01-03T09:44:17.409Z,84.77
2024-01-03T09:45:17.464Z,84.66
2024-01-03T09:46:17.394Z,83.64
2024-01-03T09:47:17.429Z,84.66
2024-01-03T09:48:17.597Z,83.74
2024-01-03T09:49:17.477Z,84.56
2024-01-03T09:50:17.364Z,84.42
2024-01-03T09:51:17.338Z,84.63
2024-01-03T09:52:17.334Z,82.89
2024-01-03T09:53:17.318Z,82.89
2024-01-03T09:54:17.304Z,83.29
2024-01-03T09:55:17.293Z,83.29
2024-01-03T09:56:17.284Z,83.39
2024-01-03T10:00:08.230Z,82.78
2024-01-03T10:01:09.221Z,83.60
2024-01-03T10:02:08.963Z,82.78
2024-01-03T10:03:09.160Z,83.39
2024-01-03T10:04:09.742Z,83.19
2024-01-03T10:05:08.835Z,83.50
2024-01-03T10:06:11.419Z,83.91
2024-01-03T10:07:08.869Z,83.70
2024-01-03T10:08:09.011Z,83.81
2024-01-03T10:09:08.806Z,84.01
2024-01-03T10:10:08.887Z,83.81
2024-01-03T10:11:08.733Z,83.91
2024-01-03T10:12:10.988Z,83.09
2024-01-03T10:13:08.713Z,83.50
2024-01-03T10:14:08.829Z,83.81
2024-01-03T10:15:08.952Z,83.29
2024-01-03T10:16:08.691Z,83.29
2024-01-03T10:17:08.810Z,83.29
2024-01-03T10:18:10.181Z,83.36
2024-01-03T10:19:08.872Z,82.89
2024-01-03T10:20:08.693Z,82.03
2024-01-03T10:21:08.838Z,83.25
2024-01-03T10:22:08.729Z,82.84
2024-01-03T10:23:08.695Z,82.95
2024-01-03T10:24:08.767Z,83.05
2024-01-03T10:25:08.642Z,82.84
2024-01-03T10:26:08.817Z,82.64
2024-01-03T10:29:24.176Z,82.91
2024-01-03T10:30:24.904Z,81.58
2024-01-03T10:31:24.384Z,81.88
2024-01-03T10:32:24.474Z,82.20
2024-01-03T10:33:24.592Z,81.99
2024-01-03T10:34:25.977Z,81.48
2024-01-03T10:35:24.311Z,81.48
2024-01-03T10:36:24.362Z,81.27
2024-01-03T10:37:32.497Z,81.58
2024-01-03T10:40:32.358Z,81.68
2024-01-03T10:41:33.405Z,81.17
2024-01-03T10:42:33.561Z,81.58
2024-01-03T10:43:33.323Z,81.07
2024-01-03T10:44:33.967Z,80.87
2024-01-03T10:45:33.275Z,81.58
2024-01-03T10:46:33.309Z,81.27
2024-01-03T10:47:33.391Z,81.79
2024-01-03T10:48:33.381Z,81.99
2024-01-03T10:49:33.419Z,81.48
2024-01-03T10:50:33.262Z,81.68
2024-01-03T10:51:33.255Z,81.68
2024-01-03T10:52:33.259Z,81.99
2024-01-03T10:53:33.237Z,81.17
2024-01-03T10:54:33.202Z,81.38
2024-01-03T10:55:33.202Z,81.38
2024-01-03T10:56:33.158Z,81.27
2024-01-03T10:57:33.146Z,81.88
2024-01-03T10:58:33.243Z,82.09
2024-01-03T10:59:33.155Z,81.95
2024-01-03T11:00:33.192Z,80.83
2024-01-03T11:01:33.133Z,81.13
2024-01-03T11:02:33.149Z,81.24
2024-01-03T11:03:33.179Z,81.13
2024-01-03T11:04:33.070Z,80.83
2024-01-03T11:05:33.150Z,81.03
2024-01-03T11:06:33.191Z,81.34
2024-01-03T11:07:33.689Z,81.13
2024-01-03T11:08:33.111Z,80.21
2024-01-03T11:09:33.015Z,81.13
2024-01-03T11:10:33.033Z,80.11
2024-01-03T11:11:33.039Z,81.24
2024-01-03T11:12:33.002Z,81.24
2024-01-03T11:13:33.014Z,81.34
2024-01-03T11:14:32.973Z,80.42
2024-01-03T11:15:38.350Z,80.21
2024-01-03T11:16:32.969Z,80.32
2024-01-03T11:17:33.074Z,80.62
2024-01-03T11:18:33.023Z,80.32
2024-01-03T11:19:33.231Z,80.83
2024-01-03T11:20:32.937Z,79.70
2024-01-03T11:21:32.922Z,79.50
2024-01-03T11:22:32.871Z,80.11
2024-01-03T11:23:32.935Z,80.62
2024-01-03T11:24:32.851Z,80.11
2024-01-03T11:25:32.836Z,80.11
2024-01-03T11:26:32.848Z,80.32
2024-01-03T11:27:32.822Z,81.03
2024-01-03T11:28:33.027Z,80.73
2024-01-03T11:29:32.825Z,81.13
2024-01-03T11:30:32.840Z,81.65
2024-01-03T11:31:32.772Z,81.74
2024-01-03T11:32:36.765Z,80.83
2024-01-03T11:33:33.475Z,81.13
2024-01-03T11:34:32.927Z,81.44
2024-01-03T11:35:32.804Z,80.62
2024-01-03T11:36:32.726Z,80.83
2024-01-03T11:37:32.736Z,80.93
2024-01-03T11:38:34.464Z,81.03
2024-01-03T11:39:32.731Z,81.24
2024-01-03T11:40:32.731Z,80.83
2024-01-03T11:41:32.719Z,81.13
2024-01-03T11:42:32.721Z,81.34
2024-01-03T11:43:32.657Z,80.52
2024-01-03T11:44:35.254Z,80.93
2024-01-03T11:45:32.677Z,80.93
2024-01-03T11:46:32.621Z,81.34
2024-01-03T11:47:32.707Z,81.40
2024-01-03T11:48:32.723Z,80.38
2024-01-03T11:49:32.704Z,80.28
2024-01-03T11:50:35.445Z,79.97
2024-01-03T11:51:32.587Z,80.69
2024-01-03T11:52:32.561Z,80.99
2024-01-03T11:55:43.233Z,81.10
2024-01-03T11:56:44.248Z,80.32
2024-01-03T11:57:44.934Z,80.73
2024-01-03T12:02:13.044Z,82.05
2024-01-03T12:09:36.405Z,83.79
2024-01-03T12:10:37.318Z,83.07
2024-01-03T12:11:38.074Z,83.38
2024-01-03T12:12:37.194Z,83.79
2024-01-03T12:13:37.242Z,83.38
2024-01-03T12:14:37.229Z,84.09
2024-01-03T12:15:43.401Z,83.01
2024-01-03T12:16:37.176Z,83.32
2024-01-03T12:17:37.437Z,83.93
2024-01-03T12:18:37.270Z,84.03
2024-01-03T12:19:37.202Z,83.83
2024-01-03T12:20:37.149Z,83.32
2024-01-03T12:21:37.175Z,83.52
2024-01-03T12:22:37.116Z,83.52
2024-01-03T12:23:37.166Z,84.14
2024-01-03T12:24:37.061Z,83.01
2024-01-03T12:25:37.104Z,83.32
2024-01-03T12:26:37.126Z,83.83
2024-01-03T12:27:37.018Z,84.14
2024-01-03T12:28:37.034Z,83.62
2024-01-03T12:29:37.107Z,84.14
2024-01-03T12:30:37.117Z,84.55
2024-01-03T12:31:37.120Z,84.65
2024-01-03T12:32:37.147Z,85.06
2024-01-03T12:33:37.224Z,85.26
2024-01-03T12:34:37.042Z,85.16
2024-01-03T12:35:36.993Z,85.16
2024-01-03T12:36:37.048Z,85.67
2024-01-03T12:37:36.998Z,85.26
2024-01-03T12:38:36.982Z,84.55
2024-01-03T12:39:36.931Z,85.06
2024-01-03T12:40:36.922Z,84.85
2024-01-03T12:41:36.949Z,85.36
2024-01-03T12:42:42.450Z,85.88
2024-01-03T12:43:36.900Z,86.08
2024-01-03T12:44:36.980Z,86.08
2024-01-03T12:45:36.875Z,85.77
2024-01-03T12:46:36.959Z,86.02
2024-01-03T12:47:36.962Z,86.53
2024-01-03T12:48:36.956Z,86.43
2024-01-03T12:49:37.689Z,86.29
2024-01-03T12:50:36.859Z,86.12
2024-01-03T12:51:44.005Z,85.40
2024-01-03T12:52:36.864Z,85.71
2024-01-03T12:53:36.777Z,85.30
2024-01-03T12:54:36.751Z,85.61
2024-01-03T12:55:36.744Z,85.91
2024-01-03T12:56:36.799Z,86.22
2024-01-03T12:57:36.816Z,85.91
2024-01-03T12:58:36.769Z,86.83
2024-01-03T12:59:37.881Z,86.63
2024-01-03T13:00:36.756Z,86.02
2024-01-03T13:01:36.738Z,86.12
2024-01-03T13:02:36.724Z,86.02
2024-01-03T13:03:36.696Z,85.20
2024-01-03T13:04:36.696Z,85.61
2024-01-03T13:05:36.753Z,85.81
2024-01-03T13:06:36.812Z,86.43
2024-01-03T13:07:36.617Z,86.02
2024-01-03T13:08:36.754Z,85.61
2024-01-03T13:09:36.655Z,85.61
2024-01-03T13:10:37.275Z,83.15
2024-01-03T13:11:36.623Z,83.97
2024-01-03T13:12:36.604Z,83.56
2024-01-03T13:13:36.539Z,83.83
2024-01-03T13:14:36.585Z,83.62
2024-01-03T13:15:36.557Z,83.93
2024-01-03T13:16:36.533Z,83.32
2024-01-03T13:17:36.839Z,83.62
2024-01-03T13:18:36.572Z,83.62
2024-01-03T13:19:36.588Z,82.91
2024-01-03T13:20:36.559Z,83.32
2024-01-03T13:21:36.492Z,83.22
2024-01-03T13:22:36.510Z,82.70
2024-01-03T13:23:36.489Z,82.70
2024-01-03T13:24:36.429Z,82.29
2024-01-03T13:25:36.426Z,82.29
2024-01-03T13:26:36.466Z,82.09
2024-01-03T13:27:36.426Z,80.97
2024-01-03T13:28:36.469Z,81.44
2024-01-03T13:29:36.458Z,81.74
2024-01-03T13:30:36.466Z,81.85
2024-01-03T13:31:36.397Z,81.24
2024-01-03T13:32:36.455Z,81.34
2024-01-03T13:33:36.441Z,81.95
2024-01-03T13:34:36.649Z,80.62
2024-01-03T13:35:36.517Z,81.24
2024-01-03T13:36:36.477Z,81.34
2024-01-03T13:37:36.290Z,80.83
2024-01-03T13:38:36.317Z,81.74
2024-01-03T13:39:36.320Z,80.11
2024-01-03T13:40:36.395Z,80.62
2024-01-03T13:41:36.332Z,80.62
2024-01-03T13:42:36.282Z,80.52
2024-01-03T13:43:36.284Z,80.01
2024-01-03T13:44:36.355Z,80.01
2024-01-03T13:45:36.215Z,80.83
2024-01-03T13:46:36.295Z,81.03
2024-01-03T14:05:06.876Z,82.36
2024-01-03T14:06:07.921Z,82.05
2024-01-03T14:07:07.836Z,82.56
2024-01-03T14:08:07.593Z,82.29
2024-01-03T14:09:08.088Z,82.40
2024-01-03T14:10:07.610Z,83.11
2024-01-03T14:11:07.569Z,83.32
2024-01-03T14:12:07.694Z,83.42
2024-01-03T14:13:07.777Z,83.32
2024-01-03T14:14:07.525Z,83.32
2024-01-03T14:15:07.559Z,83.93
2024-01-03T14:16:07.529Z,83.73
2024-01-03T14:17:07.527Z,83.62
2024-01-03T14:18:07.703Z,84.03
2024-01-03T14:24:45.123Z,83.66
2024-01-03T14:25:46.050Z,84.07
2024-01-03T14:26:46.090Z,83.76
2024-01-03T14:27:45.928Z,83.66
2024-01-03T14:28:45.914Z,84.07
2024-01-03T14:29:45.922Z,83.76
2024-01-03T14:30:46.114Z,83.56
2024-01-03T14:31:45.923Z,83.97
2024-01-03T14:32:45.982Z,83.66
2024-01-03T14:33:45.917Z,83.15
2024-01-03T14:34:45.866Z,83.25
2024-01-03T14:35:45.927Z,83.46
2024-01-03T14:36:45.883Z,83.05
2024-01-03T14:39:36.662Z,83.15
2024-01-03T14:40:37.528Z,82.43
2024-01-03T14:41:37.371Z,83.15
2024-01-03T14:42:37.336Z,82.84
2024-01-03T14:43:37.299Z,82.95